sensor_id;sensor_type;location;lat;lon;timestamp;P1;durP1;ratioP1;P2;durP2;ratioP2
23490;SDS011;14683;50.038;8.078;2022-09-25T04:02:32;11.98;;;7.65;;
23490;SDS011;14683;50.038;8.078;2022-09-25T04:07:24;12.02;;;7.85;;
23490;SDS011;14683;50.038;8.078;2022-09-25T04:09:50;9.55;;;6.25;;
23490;SDS011;14683;50.038;8.078;2022-09-25T04:12:16;6.55;;;5.95;;
23490;SDS011;14683;50.038;8.078;2022-09-25T04:14:42;7.65;;;5.93;;
23490;SDS011;14683;50.038;8.078;2022-09-25T04:17:10;8.70;;;5.47;;
23490;SDS011;14683;50.038;8.078;2022-09-25T04:19:36;5.25;;;4.75;;
23490;SDS011;14683;50.038;8.078;2022-09-25T04:22:02;7.85;;;5.10;;
23490;SDS011;14683;50.038;8.078;2022-09-25T04:24:28;5.22;;;4.63;;
23490;SDS011;14683;50.038;8.078;2022-09-25T04:27:13;4.90;;;4.40;;
23490;SDS011;14683;50.038;8.078;2022-09-25T04:29:40;5.07;;;4.32;;
23490;SDS011;14683;50.038;8.078;2022-09-25T04:32:07;5.10;;;4.60;;
23490;SDS011;14683;50.038;8.078;2022-09-25T04:34:51;5.93;;;3.97;;
23490;SDS011;14683;50.038;8.078;2022-09-25T04:37:17;5.10;;;4.45;;
23490;SDS011;14683;50.038;8.078;2022-09-25T04:39:47;4.72;;;4.22;;
23490;SDS011;14683;50.038;8.078;2022-09-25T04:44:40;4.95;;;4.43;;
23490;SDS011;14683;50.038;8.078;2022-09-25T04:47:06;6.95;;;4.93;;
23490;SDS011;14683;50.038;8.078;2022-09-25T04:49:32;6.57;;;5.10;;
23490;SDS011;14683;50.038;8.078;2022-09-25T04:51:58;6.43;;;5.68;;
23490;SDS011;14683;50.038;8.078;2022-09-25T04:54:24;8.20;;;5.32;;
23490;SDS011;14683;50.038;8.078;2022-09-25T04:56:50;8.32;;;5.35;;
23490;SDS011;14683;50.038;8.078;2022-09-25T04:59:16;9.10;;;5.82;;
23490;SDS011;14683;50.038;8.078;2022-09-25T05:01:42;6.50;;;5.72;;
23490;SDS011;14683;50.038;8.078;2022-09-25T05:04:08;6.90;;;5.80;;
23490;SDS011;14683;50.038;8.078;2022-09-25T05:06:34;9.38;;;6.13;;
23490;SDS011;14683;50.038;8.078;2022-09-25T05:09:00;26.73;;;14.82;;
23490;SDS011;14683;50.038;8.078;2022-09-25T05:11:27;7.32;;;6.20;;
23490;SDS011;14683;50.038;8.078;2022-09-25T05:13:53;8.88;;;7.05;;
23490;SDS011;14683;50.038;8.078;2022-09-25T05:16:19;7.25;;;6.07;;
23490;SDS011;14683;50.038;8.078;2022-09-25T05:18:45;6.32;;;5.20;;
23490;SDS011;14683;50.038;8.078;2022-09-25T05:21:11;9.43;;;5.55;;
23490;SDS011;14683;50.038;8.078;2022-09-25T05:23:37;6.38;;;5.53;;
23490;SDS011;14683;50.038;8.078;2022-09-25T05:26:03;6.80;;;5.65;;
23490;SDS011;14683;50.038;8.078;2022-09-25T05:28:30;7.68;;;5.95;;
23490;SDS011;14683;50.038;8.078;2022-09-25T05:31:03;8.05;;;5.13;;
23490;SDS011;14683;50.038;8.078;2022-09-25T05:33:30;5.88;;;5.28;;
23490;SDS011;14683;50.038;8.078;2022-09-25T05:36:03;10.18;;;6.78;;
23490;SDS011;14683;50.038;8.078;2022-09-25T05:38:30;12.45;;;7.60;;
23490;SDS011;14683;50.038;8.078;2022-09-25T05:41:01;9.93;;;7.00;;
23490;SDS011;14683;50.038;8.078;2022-09-25T05:43:29;8.48;;;7.07;;
23490;SDS011;14683;50.038;8.078;2022-09-25T05:45:56;10.55;;;5.85;;
23490;SDS011;14683;50.038;8.078;2022-09-25T05:48:23;5.95;;;5.35;;
23490;SDS011;14683;50.038;8.078;2022-09-25T05:50:53;6.68;;;5.93;;
23490;SDS011;14683;50.038;8.078;2022-09-25T05:53:20;7.22;;;5.88;;
23490;SDS011;14683;50.038;8.078;2022-09-25T05:58:19;7.18;;;6.47;;
23490;SDS011;14683;50.038;8.078;2022-09-25T06:00:46;8.45;;;5.82;;
23490;SDS011;14683;50.038;8.078;2022-09-25T06:03:13;8.05;;;6.18;;
23490;SDS011;14683;50.038;8.078;2022-09-25T06:05:39;7.43;;;5.53;;
23490;SDS011;14683;50.038;8.078;2022-09-25T06:10:31;6.70;;;5.45;;
23490;SDS011;14683;50.038;8.078;2022-09-25T06:12:58;7.20;;;6.20;;
23490;SDS011;14683;50.038;8.078;2022-09-25T06:15:28;9.98;;;6.20;;
23490;SDS011;14683;50.038;8.078;2022-09-25T06:18:00;7.03;;;6.22;;
23490;SDS011;14683;50.038;8.078;2022-09-25T06:20:26;10.30;;;6.57;;
23490;SDS011;14683;50.038;8.078;2022-09-25T06:22:53;10.90;;;6.97;;
23490;SDS011;14683;50.038;8.078;2022-09-25T06:25:23;9.75;;;8.25;;
23490;SDS011;14683;50.038;8.078;2022-09-25T06:27:51;10.52;;;8.15;;
23490;SDS011;14683;50.038;8.078;2022-09-25T06:30:18;10.07;;;7.70;;
23490;SDS011;14683;50.038;8.078;2022-09-25T06:32:45;9.63;;;7.57;;
23490;SDS011;14683;50.038;8.078;2022-09-25T06:35:11;11.18;;;8.23;;
23490;SDS011;14683;50.038;8.078;2022-09-25T06:37:37;10.00;;;8.98;;
23490;SDS011;14683;50.038;8.078;2022-09-25T06:40:03;11.30;;;8.27;;
23490;SDS011;14683;50.038;8.078;2022-09-25T06:42:30;10.05;;;8.25;;
23490;SDS011;14683;50.038;8.078;2022-09-25T06:44:58;12.02;;;9.45;;
23490;SDS011;14683;50.038;8.078;2022-09-25T06:47:24;15.07;;;11.43;;
23490;SDS011;14683;50.038;8.078;2022-09-25T06:49:50;10.82;;;9.45;;
23490;SDS011;14683;50.038;8.078;2022-09-25T06:54:42;13.15;;;9.35;;
23490;SDS011;14683;50.038;8.078;2022-09-25T06:57:08;12.65;;;9.88;;
23490;SDS011;14683;50.038;8.078;2022-09-25T06:59:35;10.90;;;8.77;;
23490;SDS011;14683;50.038;8.078;2022-09-25T07:02:01;9.80;;;8.77;;
23490;SDS011;14683;50.038;8.078;2022-09-25T07:04:47;10.45;;;8.73;;
23490;SDS011;14683;50.038;8.078;2022-09-25T07:07:19;15.35;;;9.43;;
23490;SDS011;14683;50.038;8.078;2022-09-25T07:09:46;12.60;;;9.32;;
23490;SDS011;14683;50.038;8.078;2022-09-25T07:12:15;13.63;;;9.63;;
23490;SDS011;14683;50.038;8.078;2022-09-25T07:14:43;12.15;;;8.88;;
23490;SDS011;14683;50.038;8.078;2022-09-25T07:17:14;11.80;;;9.10;;
23490;SDS011;14683;50.038;8.078;2022-09-25T07:19:40;13.10;;;9.50;;
23490;SDS011;14683;50.038;8.078;2022-09-25T07:22:06;13.35;;;10.70;;
23490;SDS011;14683;50.038;8.078;2022-09-25T07:24:32;12.07;;;9.40;;
23490;SDS011;14683;50.038;8.078;2022-09-25T07:26:58;13.10;;;10.68;;
23490;SDS011;14683;50.038;8.078;2022-09-25T07:29:24;14.85;;;11.52;;
23490;SDS011;14683;50.038;8.078;2022-09-25T07:31:50;14.02;;;11.43;;
23490;SDS011;14683;50.038;8.078;2022-09-25T07:34:16;15.43;;;11.45;;
23490;SDS011;14683;50.038;8.078;2022-09-25T07:36:42;14.02;;;11.45;;
23490;SDS011;14683;50.038;8.078;2022-09-25T07:39:08;14.73;;;11.18;;
23490;SDS011;14683;50.038;8.078;2022-09-25T07:41:34;15.15;;;11.85;;
23490;SDS011;14683;50.038;8.078;2022-09-25T07:44:02;13.20;;;10.55;;
23490;SDS011;14683;50.038;8.078;2022-09-25T07:46:28;16.38;;;11.73;;
23490;SDS011;14683;50.038;8.078;2022-09-25T07:48:56;14.27;;;11.05;;
23490;SDS011;14683;50.038;8.078;2022-09-25T07:51:22;17.17;;;11.13;;
23490;SDS011;14683;50.038;8.078;2022-09-25T07:53:48;14.00;;;11.13;;
23490;SDS011;14683;50.038;8.078;2022-09-25T07:56:14;14.52;;;11.40;;
23490;SDS011;14683;50.038;8.078;2022-09-25T07:58:40;14.02;;;11.13;;
23490;SDS011;14683;50.038;8.078;2022-09-25T08:01:08;17.38;;;12.30;;
23490;SDS011;14683;50.038;8.078;2022-09-25T08:03:36;16.48;;;11.55;;
23490;SDS011;14683;50.038;8.078;2022-09-25T08:06:06;14.88;;;11.25;;
23490;SDS011;14683;50.038;8.078;2022-09-25T08:08:40;14.25;;;10.35;;
23490;SDS011;14683;50.038;8.078;2022-09-25T08:11:09;13.32;;;10.40;;
23490;SDS011;14683;50.038;8.078;2022-09-25T08:13:36;15.00;;;11.25;;
23490;SDS011;14683;50.038;8.078;2022-09-25T08:16:03;13.25;;;10.48;;
23490;SDS011;14683;50.038;8.078;2022-09-25T08:18:33;17.67;;;10.95;;
23490;SDS011;14683;50.038;8.078;2022-09-25T08:21:00;12.25;;;10.40;;
23490;SDS011;14683;50.038;8.078;2022-09-25T08:23:27;14.10;;;10.40;;
23490;SDS011;14683;50.038;8.078;2022-09-25T08:25:53;13.38;;;11.18;;
23490;SDS011;14683;50.038;8.078;2022-09-25T08:28:19;15.43;;;11.45;;
23490;SDS011;14683;50.038;8.078;2022-09-25T08:30:45;14.13;;;11.25;;
23490;SDS011;14683;50.038;8.078;2022-09-25T08:33:12;13.57;;;10.82;;
23490;SDS011;14683;50.038;8.078;2022-09-25T08:40:31;13.60;;;10.80;;
23490;SDS011;14683;50.038;8.078;2022-09-25T08:42:59;16.00;;;10.98;;
23490;SDS011;14683;50.038;8.078;2022-09-25T08:48:49;12.50;;;9.57;;
23490;SDS011;14683;50.038;8.078;2022-09-25T08:51:40;14.18;;;10.27;;
23490;SDS011;14683;50.038;8.078;2022-09-25T08:54:10;12.73;;;9.73;;
23490;SDS011;14683;50.038;8.078;2022-09-25T08:56:40;14.88;;;10.00;;
23490;SDS011;14683;50.038;8.078;2022-09-25T08:59:17;15.60;;;10.13;;
23490;SDS011;14683;50.038;8.078;2022-09-25T09:01:52;12.40;;;9.70;;
23490;SDS011;14683;50.038;8.078;2022-09-25T09:04:26;15.55;;;10.35;;
23490;SDS011;14683;50.038;8.078;2022-09-25T09:07:41;13.52;;;9.73;;
23490;SDS011;14683;50.038;8.078;2022-09-25T09:10:50;16.92;;;9.85;;
23490;SDS011;14683;50.038;8.078;2022-09-25T09:12:44;14.60;;;10.50;;
23490;SDS011;14683;50.038;8.078;2022-09-25T09:18:01;13.60;;;10.02;;
23490;SDS011;14683;50.038;8.078;2022-09-25T09:24:03;13.70;;;9.52;;
23490;SDS011;14683;50.038;8.078;2022-09-25T09:26:36;13.10;;;9.90;;
23490;SDS011;14683;50.038;8.078;2022-09-25T09:29:25;14.50;;;10.88;;
23490;SDS011;14683;50.038;8.078;2022-09-25T09:34:58;12.63;;;9.38;;
23490;SDS011;14683;50.038;8.078;2022-09-25T09:40:17;12.95;;;10.13;;
23490;SDS011;14683;50.038;8.078;2022-09-25T09:45:41;12.75;;;9.75;;
23490;SDS011;14683;50.038;8.078;2022-09-25T09:48:17;12.82;;;10.63;;
23490;SDS011;14683;50.038;8.078;2022-09-25T09:50:50;13.55;;;10.07;;
23490;SDS011;14683;50.038;8.078;2022-09-25T09:53:30;13.68;;;10.63;;
23490;SDS011;14683;50.038;8.078;2022-09-25T09:56:09;13.40;;;10.23;;
23490;SDS011;14683;50.038;8.078;2022-09-25T10:01:08;13.60;;;10.45;;
23490;SDS011;14683;50.038;8.078;2022-09-25T10:03:36;14.02;;;9.45;;
23490;SDS011;14683;50.038;8.078;2022-09-25T10:06:04;16.70;;;9.98;;
23490;SDS011;14683;50.038;8.078;2022-09-25T10:08:34;14.18;;;9.70;;
23490;SDS011;14683;50.038;8.078;2022-09-25T10:11:02;11.90;;;9.23;;
23490;SDS011;14683;50.038;8.078;2022-09-25T10:13:30;12.02;;;8.80;;
23490;SDS011;14683;50.038;8.078;2022-09-25T10:16:05;11.23;;;8.73;;
23490;SDS011;14683;50.038;8.078;2022-09-25T10:18:47;10.00;;;7.95;;
23490;SDS011;14683;50.038;8.078;2022-09-25T10:21:17;12.65;;;8.35;;
23490;SDS011;14683;50.038;8.078;2022-09-25T10:26:37;10.05;;;8.25;;
23490;SDS011;14683;50.038;8.078;2022-09-25T10:29:03;15.07;;;7.75;;
23490;SDS011;14683;50.038;8.078;2022-09-25T10:31:31;10.52;;;8.02;;
23490;SDS011;14683;50.038;8.078;2022-09-25T10:39:03;10.75;;;6.65;;
23490;SDS011;14683;50.038;8.078;2022-09-25T10:41:39;11.60;;;7.13;;
23490;SDS011;14683;50.038;8.078;2022-09-25T10:44:17;7.93;;;5.65;;
23490;SDS011;14683;50.038;8.078;2022-09-25T10:47:26;7.28;;;5.97;;
23490;SDS011;14683;50.038;8.078;2022-09-25T10:50:12;10.63;;;6.40;;
23490;SDS011;14683;50.038;8.078;2022-09-25T10:52:52;11.70;;;6.75;;
23490;SDS011;14683;50.038;8.078;2022-09-25T11:06:01;7.85;;;5.88;;
23490;SDS011;14683;50.038;8.078;2022-09-25T11:08:31;8.00;;;5.28;;
23490;SDS011;14683;50.038;8.078;2022-09-25T11:10:59;7.00;;;5.63;;
23490;SDS011;14683;50.038;8.078;2022-09-25T11:13:27;7.13;;;5.18;;
23490;SDS011;14683;50.038;8.078;2022-09-25T11:15:59;9.80;;;5.60;;
23490;SDS011;14683;50.038;8.078;2022-09-25T11:21:05;9.43;;;6.22;;
23490;SDS011;14683;50.038;8.078;2022-09-25T11:26:32;5.32;;;3.92;;
23490;SDS011;14683;50.038;8.078;2022-09-25T11:29:13;4.50;;;3.63;;
23490;SDS011;14683;50.038;8.078;2022-09-25T11:31:42;6.53;;;3.92;;
23490;SDS011;14683;50.038;8.078;2022-09-25T11:37:21;4.15;;;3.35;;
23490;SDS011;14683;50.038;8.078;2022-09-25T11:43:11;4.03;;;3.20;;
23490;SDS011;14683;50.038;8.078;2022-09-25T11:45:50;6.15;;;2.72;;
23490;SDS011;14683;50.038;8.078;2022-09-25T11:53:40;3.25;;;2.20;;
23490;SDS011;14683;50.038;8.078;2022-09-25T12:16:01;4.97;;;3.03;;
23490;SDS011;14683;50.038;8.078;2022-09-25T12:18:42;2.67;;;2.47;;
23490;SDS011;14683;50.038;8.078;2022-09-25T12:21:14;5.03;;;2.90;;
23490;SDS011;14683;50.038;8.078;2022-09-25T12:23:48;3.72;;;2.03;;
23490;SDS011;14683;50.038;8.078;2022-09-25T12:37:39;3.53;;;2.95;;
23490;SDS011;14683;50.038;8.078;2022-09-25T12:40:23;6.70;;;3.55;;
23490;SDS011;14683;50.038;8.078;2022-09-25T12:43:00;5.78;;;3.13;;
23490;SDS011;14683;50.038;8.078;2022-09-25T12:48:09;6.22;;;3.17;;
23490;SDS011;14683;50.038;8.078;2022-09-25T12:53:48;5.15;;;3.90;;
23490;SDS011;14683;50.038;8.078;2022-09-25T12:56:21;6.38;;;3.80;;
23490;SDS011;14683;50.038;8.078;2022-09-25T13:01:42;4.90;;;3.55;;
23490;SDS011;14683;50.038;8.078;2022-09-25T13:12:55;5.82;;;4.05;;
23490;SDS011;14683;50.038;8.078;2022-09-25T13:15:24;5.57;;;3.80;;
23490;SDS011;14683;50.038;8.078;2022-09-25T13:17:53;7.13;;;3.80;;
23490;SDS011;14683;50.038;8.078;2022-09-25T13:20:39;7.13;;;3.70;;
23490;SDS011;14683;50.038;8.078;2022-09-25T13:25:39;2.60;;;2.40;;
23490;SDS011;14683;50.038;8.078;2022-09-25T13:28:07;4.65;;;2.50;;
23490;SDS011;14683;50.038;8.078;2022-09-25T13:30:34;5.32;;;3.50;;
23490;SDS011;14683;50.038;8.078;2022-09-25T13:35:27;4.00;;;2.97;;
23490;SDS011;14683;50.038;8.078;2022-09-25T13:37:55;6.57;;;4.15;;
23490;SDS011;14683;50.038;8.078;2022-09-25T13:40:33;5.85;;;2.33;;
23490;SDS011;14683;50.038;8.078;2022-09-25T13:43:20;3.40;;;2.30;;
23490;SDS011;14683;50.038;8.078;2022-09-25T13:48:44;3.88;;;2.10;;
23490;SDS011;14683;50.038;8.078;2022-09-25T13:53:52;5.40;;;2.40;;
23490;SDS011;14683;50.038;8.078;2022-09-25T13:56:27;7.38;;;2.83;;
23490;SDS011;14683;50.038;8.078;2022-09-25T14:01:41;4.82;;;2.30;;
23490;SDS011;14683;50.038;8.078;2022-09-25T14:06:41;4.30;;;2.75;;
23490;SDS011;14683;50.038;8.078;2022-09-25T14:09:11;6.50;;;3.13;;
23490;SDS011;14683;50.038;8.078;2022-09-25T14:11:39;7.97;;;2.50;;
23490;SDS011;14683;50.038;8.078;2022-09-25T14:14:08;4.15;;;2.22;;
23490;SDS011;14683;50.038;8.078;2022-09-25T14:16:42;3.55;;;2.60;;
23490;SDS011;14683;50.038;8.078;2022-09-25T14:19:14;5.60;;;1.92;;
23490;SDS011;14683;50.038;8.078;2022-09-25T14:21:43;6.25;;;2.05;;
23490;SDS011;14683;50.038;8.078;2022-09-25T14:24:11;5.03;;;1.92;;
23490;SDS011;14683;50.038;8.078;2022-09-25T14:26:44;3.63;;;1.63;;
23490;SDS011;14683;50.038;8.078;2022-09-25T14:29:17;7.28;;;2.75;;
23490;SDS011;14683;50.038;8.078;2022-09-25T14:34:27;14.60;;;6.88;;
23490;SDS011;14683;50.038;8.078;2022-09-25T14:42:28;6.60;;;3.40;;
23490;SDS011;14683;50.038;8.078;2022-09-25T14:47:51;5.20;;;2.10;;
23490;SDS011;14683;50.038;8.078;2022-09-25T14:50:22;3.20;;;1.60;;
23490;SDS011;14683;50.038;8.078;2022-09-25T14:52:53;7.15;;;2.00;;
23490;SDS011;14683;50.038;8.078;2022-09-25T14:55:23;3.03;;;1.90;;
23490;SDS011;14683;50.038;8.078;2022-09-25T14:57:51;4.35;;;1.60;;
23490;SDS011;14683;50.038;8.078;2022-09-25T15:00:18;2.97;;;1.80;;
23490;SDS011;14683;50.038;8.078;2022-09-25T15:02:49;6.13;;;2.40;;
23490;SDS011;14683;50.038;8.078;2022-09-25T15:05:23;7.70;;;2.33;;
23490;SDS011;14683;50.038;8.078;2022-09-25T15:07:54;4.57;;;1.35;;
23490;SDS011;14683;50.038;8.078;2022-09-25T15:10:31;4.97;;;1.23;;
23490;SDS011;14683;50.038;8.078;2022-09-25T15:13:06;7.57;;;3.10;;
23490;SDS011;14683;50.038;8.078;2022-09-25T15:15:40;6.93;;;1.98;;
23490;SDS011;14683;50.038;8.078;2022-09-25T15:18:45;6.70;;;1.77;;
23490;SDS011;14683;50.038;8.078;2022-09-25T15:24:02;6.22;;;2.53;;
23490;SDS011;14683;50.038;8.078;2022-09-25T15:26:31;7.38;;;3.10;;
23490;SDS011;14683;50.038;8.078;2022-09-25T15:28:58;8.85;;;3.05;;
23490;SDS011;14683;50.038;8.078;2022-09-25T15:31:24;7.80;;;2.90;;
23490;SDS011;14683;50.038;8.078;2022-09-25T15:34:07;7.43;;;3.47;;
23490;SDS011;14683;50.038;8.078;2022-09-25T15:36:36;10.07;;;4.28;;
23490;SDS011;14683;50.038;8.078;2022-09-25T15:39:08;6.60;;;4.05;;
23490;SDS011;14683;50.038;8.078;2022-09-25T15:41:38;8.70;;;2.35;;
23490;SDS011;14683;50.038;8.078;2022-09-25T15:44:10;9.60;;;2.90;;
23490;SDS011;14683;50.038;8.078;2022-09-25T15:46:41;10.43;;;3.90;;
23490;SDS011;14683;50.038;8.078;2022-09-25T15:49:12;8.98;;;4.40;;
23490;SDS011;14683;50.038;8.078;2022-09-25T15:51:39;5.30;;;3.13;;
23490;SDS011;14683;50.038;8.078;2022-09-25T15:54:21;9.95;;;4.03;;
23490;SDS011;14683;50.038;8.078;2022-09-25T15:57:09;8.80;;;6.05;;
23490;SDS011;14683;50.038;8.078;2022-09-25T15:59:45;8.95;;;4.28;;
23490;SDS011;14683;50.038;8.078;2022-09-25T16:02:32;8.60;;;2.50;;
23490;SDS011;14683;50.038;8.078;2022-09-25T16:05:24;7.43;;;2.72;;
23490;SDS011;14683;50.038;8.078;2022-09-25T16:08:13;6.03;;;2.10;;
23490;SDS011;14683;50.038;8.078;2022-09-25T16:10:39;9.32;;;2.70;;
23490;SDS011;14683;50.038;8.078;2022-09-25T16:13:16;5.45;;;2.75;;
23490;SDS011;14683;50.038;8.078;2022-09-25T16:15:48;6.63;;;2.63;;
23490;SDS011;14683;50.038;8.078;2022-09-25T16:23:53;11.82;;;6.25;;
23490;SDS011;14683;50.038;8.078;2022-09-25T16:26:22;13.50;;;5.80;;
23490;SDS011;14683;50.038;8.078;2022-09-25T16:28:59;12.05;;;4.88;;
23490;SDS011;14683;50.038;8.078;2022-09-25T16:31:29;9.23;;;4.50;;
23490;SDS011;14683;50.038;8.078;2022-09-25T16:33:56;8.32;;;5.10;;
23490;SDS011;14683;50.038;8.078;2022-09-25T16:36:22;9.57;;;2.78;;
23490;SDS011;14683;50.038;8.078;2022-09-25T16:41:38;9.80;;;2.20;;
23490;SDS011;14683;50.038;8.078;2022-09-25T16:44:15;5.35;;;1.70;;
23490;SDS011;14683;50.038;8.078;2022-09-25T16:46:43;6.47;;;2.40;;
23490;SDS011;14683;50.038;8.078;2022-09-25T16:49:12;6.40;;;2.15;;
23490;SDS011;14683;50.038;8.078;2022-09-25T16:51:41;8.23;;;2.40;;
23490;SDS011;14683;50.038;8.078;2022-09-25T16:54:11;5.20;;;2.20;;
23490;SDS011;14683;50.038;8.078;2022-09-25T16:56:39;6.75;;;3.05;;
23490;SDS011;14683;50.038;8.078;2022-09-25T16:59:15;12.77;;;3.80;;
23490;SDS011;14683;50.038;8.078;2022-09-25T17:01:44;6.32;;;2.85;;
23490;SDS011;14683;50.038;8.078;2022-09-25T17:04:12;6.20;;;3.45;;
23490;SDS011;14683;50.038;8.078;2022-09-25T17:06:38;7.25;;;2.67;;
23490;SDS011;14683;50.038;8.078;2022-09-25T17:09:09;4.28;;;3.17;;
23490;SDS011;14683;50.038;8.078;2022-09-25T17:11:37;5.93;;;3.40;;
23490;SDS011;14683;50.038;8.078;2022-09-25T17:14:04;9.18;;;3.38;;
23490;SDS011;14683;50.038;8.078;2022-09-25T17:16:31;7.20;;;2.83;;
23490;SDS011;14683;50.038;8.078;2022-09-25T17:18:58;7.25;;;2.55;;
23490;SDS011;14683;50.038;8.078;2022-09-25T17:21:24;7.55;;;2.47;;
23490;SDS011;14683;50.038;8.078;2022-09-25T17:23:50;8.45;;;2.88;;
23490;SDS011;14683;50.038;8.078;2022-09-25T17:26:20;6.82;;;2.90;;
23490;SDS011;14683;50.038;8.078;2022-09-25T17:28:47;9.10;;;3.15;;
23490;SDS011;14683;50.038;8.078;2022-09-25T17:31:15;6.15;;;2.92;;
23490;SDS011;14683;50.038;8.078;2022-09-25T17:33:45;4.30;;;3.47;;
23490;SDS011;14683;50.038;8.078;2022-09-25T17:36:11;6.82;;;3.80;;
23490;SDS011;14683;50.038;8.078;2022-09-25T17:38:38;9.25;;;3.80;;
23490;SDS011;14683;50.038;8.078;2022-09-25T17:41:05;9.73;;;3.03;;
23490;SDS011;14683;50.038;8.078;2022-09-25T17:43:32;7.10;;;2.67;;
23490;SDS011;14683;50.038;8.078;2022-09-25T17:45:58;9.05;;;4.30;;
23490;SDS011;14683;50.038;8.078;2022-09-25T17:48:26;12.45;;;5.53;;
23490;SDS011;14683;50.038;8.078;2022-09-25T17:51:00;12.00;;;6.63;;
23490;SDS011;14683;50.038;8.078;2022-09-25T17:53:45;11.95;;;6.65;;
23490;SDS011;14683;50.038;8.078;2022-09-25T17:56:14;12.05;;;5.05;;
23490;SDS011;14683;50.038;8.078;2022-09-25T17:58:40;11.10;;;5.03;;
23490;SDS011;14683;50.038;8.078;2022-09-25T18:01:11;8.18;;;3.70;;
23490;SDS011;14683;50.038;8.078;2022-09-25T18:03:39;7.60;;;2.78;;
23490;SDS011;14683;50.038;8.078;2022-09-25T18:06:05;7.47;;;2.50;;
23490;SDS011;14683;50.038;8.078;2022-09-25T18:08:31;5.30;;;2.80;;
23490;SDS011;14683;50.038;8.078;2022-09-25T18:10:58;10.45;;;2.75;;
23490;SDS011;14683;50.038;8.078;2022-09-25T18:13:24;8.63;;;3.25;;
23490;SDS011;14683;50.038;8.078;2022-09-25T18:15:52;8.93;;;2.75;;
23490;SDS011;14683;50.038;8.078;2022-09-25T18:18:19;8.68;;;3.03;;
23490;SDS011;14683;50.038;8.078;2022-09-25T18:20:45;6.40;;;3.10;;
23490;SDS011;14683;50.038;8.078;2022-09-25T18:23:30;7.60;;;2.97;;
23490;SDS011;14683;50.038;8.078;2022-09-25T18:25:59;5.53;;;2.60;;
23490;SDS011;14683;50.038;8.078;2022-09-25T18:28:26;6.93;;;3.28;;
23490;SDS011;14683;50.038;8.078;2022-09-25T18:30:54;11.75;;;3.50;;
23490;SDS011;14683;50.038;8.078;2022-09-25T18:33:22;4.57;;;2.50;;
23490;SDS011;14683;50.038;8.078;2022-09-25T18:35:53;5.72;;;2.40;;
23490;SDS011;14683;50.038;8.078;2022-09-25T18:38:19;5.10;;;2.22;;
23490;SDS011;14683;50.038;8.078;2022-09-25T18:40:45;6.28;;;3.22;;
23490;SDS011;14683;50.038;8.078;2022-09-25T18:43:11;4.82;;;2.60;;
23490;SDS011;14683;50.038;8.078;2022-09-25T18:45:37;3.33;;;2.55;;
23490;SDS011;14683;50.038;8.078;2022-09-25T18:48:03;4.38;;;2.70;;
23490;SDS011;14683;50.038;8.078;2022-09-25T18:50:29;6.03;;;2.38;;
23490;SDS011;14683;50.038;8.078;2022-09-25T18:52:56;4.65;;;2.85;;
23490;SDS011;14683;50.038;8.078;2022-09-25T18:55:23;7.57;;;2.97;;
23490;SDS011;14683;50.038;8.078;2022-09-25T18:57:51;6.50;;;2.88;;
23490;SDS011;14683;50.038;8.078;2022-09-25T19:00:17;7.47;;;2.80;;
23490;SDS011;14683;50.038;8.078;2022-09-25T19:02:43;7.07;;;3.15;;
23490;SDS011;14683;50.038;8.078;2022-09-25T19:05:09;8.63;;;3.22;;
23490;SDS011;14683;50.038;8.078;2022-09-25T19:07:36;5.65;;;3.47;;
23490;SDS011;14683;50.038;8.078;2022-09-25T19:10:03;7.55;;;3.67;;
23490;SDS011;14683;50.038;8.078;2022-09-25T19:12:34;8.98;;;2.80;;
23490;SDS011;14683;50.038;8.078;2022-09-25T19:17:29;7.40;;;3.03;;
23490;SDS011;14683;50.038;8.078;2022-09-25T19:19:55;10.75;;;3.70;;
23490;SDS011;14683;50.038;8.078;2022-09-25T19:22:21;7.32;;;4.05;;
23490;SDS011;14683;50.038;8.078;2022-09-25T19:24:48;8.27;;;4.07;;
23490;SDS011;14683;50.038;8.078;2022-09-25T19:27:15;7.35;;;4.30;;
23490;SDS011;14683;50.038;8.078;2022-09-25T19:29:45;10.52;;;4.43;;
23490;SDS011;14683;50.038;8.078;2022-09-25T19:32:12;10.98;;;5.18;;
23490;SDS011;14683;50.038;8.078;2022-09-25T19:34:40;7.82;;;4.10;;
23490;SDS011;14683;50.038;8.078;2022-09-25T19:39:32;9.63;;;5.68;;
23490;SDS011;14683;50.038;8.078;2022-09-25T19:42:25;12.75;;;4.75;;
23490;SDS011;14683;50.038;8.078;2022-09-25T19:44:52;16.92;;;5.03;;
23490;SDS011;14683;50.038;8.078;2022-09-25T19:47:20;8.18;;;4.82;;
23490;SDS011;14683;50.038;8.078;2022-09-25T19:49:47;8.75;;;4.47;;
23490;SDS011;14683;50.038;8.078;2022-09-25T19:52:13;5.90;;;3.55;;
23490;SDS011;14683;50.038;8.078;2022-09-25T19:54:39;7.38;;;3.50;;
23490;SDS011;14683;50.038;8.078;2022-09-25T19:59:34;8.30;;;3.80;;
